sensor_id;sensor_type;location;lat;lon;timestamp;pressure;altitude;pressure_sealevel;temperature
24740;BMP280;45234;48.148;17.128;2023-09-12T00:02:16;99759.88;;;21.06
24740;BMP280;45234;48.148;17.128;2023-09-12T00:04:43;99753.03;;;21.05
24740;BMP280;45234;48.148;17.128;2023-09-12T00:07:10;99752.53;;;21.03
24740;BMP280;45234;48.148;17.128;2023-09-12T00:09:37;99753.03;;;21.05
24740;BMP280;45234;48.148;17.128;2023-09-12T00:12:05;99750.41;;;21.05
24740;BMP280;45234;48.148;17.128;2023-09-12T00:14:34;99761.22;;;21.04
24740;BMP280;45234;48.148;17.128;2023-09-12T00:17:01;99754.66;;;21.01
24740;BMP280;45234;48.148;17.128;2023-09-12T00:19:28;99753.59;;;20.97
24740;BMP280;45234;48.148;17.128;2023-09-12T00:21:55;99750.75;;;20.94
24740;BMP280;45234;48.148;17.128;2023-09-12T00:24:22;99755.75;;;20.95
24740;BMP280;45234;48.148;17.128;2023-09-12T00:26:49;99753.09;;;20.95
24740;BMP280;45234;48.148;17.128;2023-09-12T00:29:17;99753.63;;;20.92
24740;BMP280;45234;48.148;17.128;2023-09-12T00:31:45;99754.16;;;20.89
24740;BMP280;45234;48.148;17.128;2023-09-12T00:34:16;99742.88;;;20.83
24740;BMP280;45234;48.148;17.128;2023-09-12T00:36:44;99746.28;;;20.84
24740;BMP280;45234;48.148;17.128;2023-09-12T00:39:11;99746.28;;;20.84
24740;BMP280;45234;48.148;17.128;2023-09-12T00:41:38;99743.94;;;20.82
24740;BMP280;45234;48.148;17.128;2023-09-12T00:44:06;99743.41;;;20.80
24740;BMP280;45234;48.148;17.128;2023-09-12T00:46:33;99740.78;;;20.80
24740;BMP280;45234;48.148;17.128;2023-09-12T00:49:02;99750.53;;;20.80
24740;BMP280;45234;48.148;17.128;2023-09-12T00:51:30;99746.59;;;20.77
24740;BMP280;45234;48.148;17.128;2023-09-12T00:53:57;99745.78;;;20.77
24740;BMP280;45234;48.148;17.128;2023-09-12T00:56:25;99745.78;;;20.77
24740;BMP280;45234;48.148;17.128;2023-09-12T00:58:52;99741.59;;;20.76
24740;BMP280;45234;48.148;17.128;2023-09-12T01:01:20;99736.88;;;20.73
24740;BMP280;45234;48.148;17.128;2023-09-12T01:03:48;99742.13;;;20.73
24740;BMP280;45234;48.148;17.128;2023-09-12T01:06:21;99743.75;;;20.69
24740;BMP280;45234;48.148;17.128;2023-09-12T01:08:49;99738.72;;;20.67
24740;BMP280;45234;48.148;17.128;2023-09-12T01:11:17;99738.47;;;20.69
24740;BMP280;45234;48.148;17.128;2023-09-12T01:13:44;99743.19;;;20.67
24740;BMP280;45234;48.148;17.128;2023-09-12T01:16:13;99737.44;;;20.65
24740;BMP280;45234;48.148;17.128;2023-09-12T01:18:40;99740.09;;;20.60
24740;BMP280;45234;48.148;17.128;2023-09-12T01:24:17;99733.84;;;20.40
24740;BMP280;45234;48.148;17.128;2023-09-12T01:29:33;99742.25;;;20.48
24740;BMP280;45234;48.148;17.128;2023-09-12T01:32:02;99739.63;;;20.48
24740;BMP280;45234;48.148;17.128;2023-09-12T01:34:31;99741.97;;;20.44
24740;BMP280;45234;48.148;17.128;2023-09-12T01:36:57;99745.91;;;20.41
24740;BMP280;45234;48.148;17.128;2023-09-12T01:39:24;99742.25;;;20.42
24740;BMP280;45234;48.148;17.128;2023-09-12T01:41:53;99741.72;;;20.35
24740;BMP280;45234;48.148;17.128;2023-09-12T01:44:24;99741.22;;;20.33
24740;BMP280;45234;48.148;17.128;2023-09-12T01:46:52;99743.84;;;20.38
24740;BMP280;45234;48.148;17.128;2023-09-12T01:49:23;99745.44;;;20.39
24740;BMP280;45234;48.148;17.128;2023-09-12T01:51:52;99748.56;;;20.41
24740;BMP280;45234;48.148;17.128;2023-09-12T01:54:20;99748.06;;;20.39
24740;BMP280;45234;48.148;17.128;2023-09-12T01:56:48;99746.78;;;20.37
24740;BMP280;45234;48.148;17.128;2023-09-12T01:59:16;99754.91;;;20.35
24740;BMP280;45234;48.148;17.128;2023-09-12T02:01:42;99751.47;;;20.35
24740;BMP280;45234;48.148;17.128;2023-09-12T02:04:09;99755.94;;;20.34
24740;BMP280;45234;48.148;17.128;2023-09-12T02:06:37;99751.72;;;20.33
24740;BMP280;45234;48.148;17.128;2023-09-12T02:09:05;99756.50;;;20.31
24740;BMP280;45234;48.148;17.128;2023-09-12T02:11:32;99752.81;;;20.32
24740;BMP280;45234;48.148;17.128;2023-09-12T02:13:59;99761.75;;;20.31
24740;BMP280;45234;48.148;17.128;2023-09-12T02:16:27;99759.13;;;20.31
24740;BMP280;45234;48.148;17.128;2023-09-12T02:18:54;99759.13;;;20.31
24740;BMP280;45234;48.148;17.128;2023-09-12T02:21:21;99757.56;;;20.30
24740;BMP280;45234;48.148;17.128;2023-09-12T02:23:50;99764.94;;;20.28
24740;BMP280;45234;48.148;17.128;2023-09-12T02:26:17;99762.31;;;20.23
24740;BMP280;45234;48.148;17.128;2023-09-12T02:28:45;99758.63;;;20.19
24740;BMP280;45234;48.148;17.128;2023-09-12T02:31:13;99755.22;;;20.19
24740;BMP280;45234;48.148;17.128;2023-09-12T02:33:40;99762.31;;;20.18
24740;BMP280;45234;48.148;17.128;2023-09-12T02:36:07;99758.34;;;20.21
24740;BMP280;45234;48.148;17.128;2023-09-12T02:38:34;99759.13;;;20.21
24740;BMP280;45234;48.148;17.128;2023-09-12T02:41:01;99759.13;;;20.21
24740;BMP280;45234;48.148;17.128;2023-09-12T02:43:29;99760.72;;;20.22
24740;BMP280;45234;48.148;17.128;2023-09-12T02:45:57;99765.19;;;20.22
24740;BMP280;45234;48.148;17.128;2023-09-12T02:48:24;99761.25;;;20.24
24740;BMP280;45234;48.148;17.128;2023-09-12T02:50:51;99773.09;;;20.27
24740;BMP280;45234;48.148;17.128;2023-09-12T02:53:18;99771.78;;;20.24
24740;BMP280;45234;48.148;17.128;2023-09-12T02:55:45;99769.66;;;20.21
24740;BMP280;45234;48.148;17.128;2023-09-12T02:58:12;99765.19;;;20.22
24740;BMP280;45234;48.148;17.128;2023-09-12T03:00:39;99761.28;;;20.19
24740;BMP280;45234;48.148;17.128;2023-09-12T03:03:09;99769.69;;;20.16
24740;BMP280;45234;48.148;17.128;2023-09-12T03:05:37;99769.94;;;20.15
24740;BMP280;45234;48.148;17.128;2023-09-12T03:08:04;99771.25;;;20.17
24740;BMP280;45234;48.148;17.128;2023-09-12T03:10:31;99760.22;;;20.15
24740;BMP280;45234;48.148;17.128;2023-09-12T03:12:58;99766.53;;;20.14
24740;BMP280;45234;48.148;17.128;2023-09-12T03:15:25;99759.41;;;20.15
24740;BMP280;45234;48.148;17.128;2023-09-12T03:17:52;99764.16;;;20.13
24740;BMP280;45234;48.148;17.128;2023-09-12T03:20:19;99760.72;;;20.12
24740;BMP280;45234;48.148;17.128;2023-09-12T03:22:46;99767.81;;;20.12
24740;BMP280;45234;48.148;17.128;2023-09-12T03:25:13;99761.81;;;20.06
24740;BMP280;45234;48.148;17.128;2023-09-12T03:27:40;99770.75;;;20.05
24740;BMP280;45234;48.148;17.128;2023-09-12T03:30:08;99762.34;;;20.03
24740;BMP280;45234;48.148;17.128;2023-09-12T03:32:35;99763.38;;;20.02
24740;BMP280;45234;48.148;17.128;2023-09-12T03:35:02;99754.69;;;20.01
24740;BMP280;45234;48.148;17.128;2023-09-12T03:37:29;99754.97;;;20.00
24740;BMP280;45234;48.148;17.128;2023-09-12T03:39:56;99761.81;;;20.01
24740;BMP280;45234;48.148;17.128;2023-09-12T03:42:23;99770.22;;;20.03
24740;BMP280;45234;48.148;17.128;2023-09-12T03:45:04;99767.31;;;19.99
24740;BMP280;45234;48.148;17.128;2023-09-12T03:47:31;99768.91;;;20.00
24740;BMP280;45234;48.148;17.128;2023-09-12T03:49:58;99759.72;;;19.98
24740;BMP280;45234;48.148;17.128;2023-09-12T03:52:25;99769.94;;;19.99
24740;BMP280;45234;48.148;17.128;2023-09-12T03:54:52;99769.94;;;19.99
24740;BMP280;45234;48.148;17.128;2023-09-12T03:57:20;99770.47;;;20.01
24740;BMP280;45234;48.148;17.128;2023-09-12T03:59:47;99768.34;;;20.03
24740;BMP280;45234;48.148;17.128;2023-09-12T04:02:14;99765.22;;;20.01
24740;BMP280;45234;48.148;17.128;2023-09-12T04:04:41;99773.91;;;20.02
24740;BMP280;45234;48.148;17.128;2023-09-12T04:07:08;99763.91;;;19.99
24740;BMP280;45234;48.148;17.128;2023-09-12T04:09:35;99771.00;;;19.93
24740;BMP280;45234;48.148;17.128;2023-09-12T04:12:02;99775.47;;;19.93
24740;BMP280;45234;48.148;17.128;2023-09-12T04:14:29;99772.84;;;19.93
24740;BMP280;45234;48.148;17.128;2023-09-12T04:16:56;99766.81;;;19.92
24740;BMP280;45234;48.148;17.128;2023-09-12T04:19:26;99770.22;;;19.93
24740;BMP280;45234;48.148;17.128;2023-09-12T04:21:52;99773.66;;;19.93
24740;BMP280;45234;48.148;17.128;2023-09-12T04:24:20;99779.16;;;19.92
24740;BMP280;45234;48.148;17.128;2023-09-12T04:26:47;99777.06;;;19.89
24740;BMP280;45234;48.148;17.128;2023-09-12T04:29:18;99787.06;;;19.92
24740;BMP280;45234;48.148;17.128;2023-09-12T04:31:45;99783.63;;;19.91
24740;BMP280;45234;48.148;17.128;2023-09-12T04:34:12;99785.47;;;19.91
24740;BMP280;45234;48.148;17.128;2023-09-12T04:36:40;99780.22;;;19.86
24740;BMP280;45234;48.148;17.128;2023-09-12T04:39:07;99783.13;;;19.89
24740;BMP280;45234;48.148;17.128;2023-09-12T04:41:35;99782.34;;;19.89
24740;BMP280;45234;48.148;17.128;2023-09-12T04:44:02;99785.47;;;19.91
24740;BMP280;45234;48.148;17.128;2023-09-12T04:46:29;99779.69;;;19.94
24740;BMP280;45234;48.148;17.128;2023-09-12T04:48:56;99781.81;;;19.97
24740;BMP280;45234;48.148;17.128;2023-09-12T04:51:23;99788.91;;;19.96
24740;BMP280;45234;48.148;17.128;2023-09-12T04:53:50;99784.44;;;19.97
24740;BMP280;45234;48.148;17.128;2023-09-12T04:56:19;99787.88;;;19.97
24740;BMP280;45234;48.148;17.128;2023-09-12T04:58:46;99786.03;;;19.98
24740;BMP280;45234;48.148;17.128;2023-09-12T05:01:13;99797.06;;;20.05
24740;BMP280;45234;48.148;17.128;2023-09-12T05:03:40;99796.28;;;20.10
24740;BMP280;45234;48.148;17.128;2023-09-12T05:06:08;99793.88;;;20.13
24740;BMP280;45234;48.148;17.128;2023-09-12T05:08:35;99793.88;;;20.13
24740;BMP280;45234;48.148;17.128;2023-09-12T05:11:03;99799.66;;;20.20
24740;BMP280;45234;48.148;17.128;2023-09-12T05:13:30;99789.41;;;20.24
24740;BMP280;45234;48.148;17.128;2023-09-12T05:15:59;99791.50;;;20.32
24740;BMP280;45234;48.148;17.128;2023-09-12T05:18:26;99795.19;;;20.41
24740;BMP280;45234;48.148;17.128;2023-09-12T05:20:54;99798.00;;;20.55
24740;BMP280;45234;48.148;17.128;2023-09-12T05:23:21;99789.56;;;20.63
24740;BMP280;45234;48.148;17.128;2023-09-12T05:25:48;99792.75;;;20.70
24740;BMP280;45234;48.148;17.128;2023-09-12T05:28:16;99793.53;;;20.70
24740;BMP280;45234;48.148;17.128;2023-09-12T05:30:47;99799.28;;;20.77
24740;BMP280;45234;48.148;17.128;2023-09-12T05:33:15;99802.69;;;20.83
24740;BMP280;45234;48.148;17.128;2023-09-12T05:35:42;99802.16;;;20.81
24740;BMP280;45234;48.148;17.128;2023-09-12T05:38:11;99797.66;;;20.87
24740;BMP280;45234;48.148;17.128;2023-09-12T05:40:38;99808.97;;;20.92
24740;BMP280;45234;48.148;17.128;2023-09-12T05:43:05;99804.44;;;20.98
24740;BMP280;45234;48.148;17.128;2023-09-12T05:45:32;99802.06;;;21.06
24740;BMP280;45234;48.148;17.128;2023-09-12T05:48:03;99814.94;;;21.13
24740;BMP280;45234;48.148;17.128;2023-09-12T05:50:32;99807.22;;;21.27
24740;BMP280;45234;48.148;17.128;2023-09-12T05:53:00;99814.22;;;21.41
24740;BMP280;45234;48.148;17.128;2023-09-12T05:55:27;99812.25;;;21.62
24740;BMP280;45234;48.148;17.128;2023-09-12T05:57:55;99810.66;;;21.66
24740;BMP280;45234;48.148;17.128;2023-09-12T06:00:22;99816.22;;;21.93
24740;BMP280;45234;48.148;17.128;2023-09-12T06:02:51;99816.50;;;22.68
24740;BMP280;45234;48.148;17.128;2023-09-12T06:05:18;99805.63;;;23.63
24740;BMP280;45234;48.148;17.128;2023-09-12T06:07:46;99809.47;;;24.44
24740;BMP280;45234;48.148;17.128;2023-09-12T06:10:13;99808.50;;;25.12
24740;BMP280;45234;48.148;17.128;2023-09-12T06:12:41;99811.56;;;25.72
24740;BMP280;45234;48.148;17.128;2023-09-12T06:15:11;99820.38;;;26.30
24740;BMP280;45234;48.148;17.128;2023-09-12T06:17:39;99810.25;;;26.40
24740;BMP280;45234;48.148;17.128;2023-09-12T06:20:06;99814.59;;;26.36
24740;BMP280;45234;48.148;17.128;2023-09-12T06:22:34;99819.97;;;26.62
24740;BMP280;45234;48.148;17.128;2023-09-12T06:25:03;99813.88;;;26.87
24740;BMP280;45234;48.148;17.128;2023-09-12T06:27:33;99818.84;;;27.32
24740;BMP280;45234;48.148;17.128;2023-09-12T06:30:00;99824.72;;;27.54
24740;BMP280;45234;48.148;17.128;2023-09-12T06:32:33;99822.31;;;27.79
24740;BMP280;45234;48.148;17.128;2023-09-12T06:35:01;99828.19;;;27.55
24740;BMP280;45234;48.148;17.128;2023-09-12T06:37:31;99830.09;;;27.46
24740;BMP280;45234;48.148;17.128;2023-09-12T06:40:00;99829.25;;;27.62
24740;BMP280;45234;48.148;17.128;2023-09-12T06:42:28;99828.56;;;27.83
24740;BMP280;45234;48.148;17.128;2023-09-12T06:44:55;99831.94;;;28.00
24740;BMP280;45234;48.148;17.128;2023-09-12T06:47:22;99824.97;;;28.08
24740;BMP280;45234;48.148;17.128;2023-09-12T06:49:49;99831.38;;;28.36
24740;BMP280;45234;48.148;17.128;2023-09-12T06:52:21;99834.34;;;28.43
24740;BMP280;45234;48.148;17.128;2023-09-12T06:54:49;99829.34;;;28.42
24740;BMP280;45234;48.148;17.128;2023-09-12T06:57:17;99837.72;;;28.73
24740;BMP280;45234;48.148;17.128;2023-09-12T06:59:45;99835.97;;;28.36
24740;BMP280;45234;48.148;17.128;2023-09-12T07:02:11;99836.53;;;28.21
24740;BMP280;45234;48.148;17.128;2023-09-12T07:04:40;99834.25;;;28.31
24740;BMP280;45234;48.148;17.128;2023-09-12T07:07:07;99839.34;;;28.16
24740;BMP280;45234;48.148;17.128;2023-09-12T07:09:34;99841.94;;;28.03
24740;BMP280;45234;48.148;17.128;2023-09-12T07:12:01;99844.41;;;27.79
24740;BMP280;45234;48.148;17.128;2023-09-12T07:14:30;99851.53;;;27.87
24740;BMP280;45234;48.148;17.128;2023-09-12T07:16:58;99844.91;;;28.11
24740;BMP280;45234;48.148;17.128;2023-09-12T07:19:25;99842.50;;;28.18
24740;BMP280;45234;48.148;17.128;2023-09-12T07:21:52;99836.63;;;28.33
24740;BMP280;45234;48.148;17.128;2023-09-12T07:24:20;99843.63;;;28.58
24740;BMP280;45234;48.148;17.128;2023-09-12T07:26:51;99838.56;;;28.24
24740;BMP280;45234;48.148;17.128;2023-09-12T07:29:18;99835.19;;;28.35
24740;BMP280;45234;48.148;17.128;2023-09-12T07:31:45;99843.31;;;28.80
24740;BMP280;45234;48.148;17.128;2023-09-12T07:34:12;99846.13;;;28.63
24740;BMP280;45234;48.148;17.128;2023-09-12T07:36:41;99849.56;;;28.43
24740;BMP280;45234;48.148;17.128;2023-09-12T07:39:08;99855.66;;;28.43
24740;BMP280;45234;48.148;17.128;2023-09-12T07:41:35;99845.25;;;28.00
24740;BMP280;45234;48.148;17.128;2023-09-12T07:44:03;99849.94;;;28.03
24740;BMP280;45234;48.148;17.128;2023-09-12T07:46:31;99855.31;;;28.53
24740;BMP280;45234;48.148;17.128;2023-09-12T07:48:58;99849.72;;;29.00
24740;BMP280;45234;48.148;17.128;2023-09-12T07:51:25;99850.63;;;29.25
24740;BMP280;45234;48.148;17.128;2023-09-12T07:53:52;99853.13;;;29.21
24740;BMP280;45234;48.148;17.128;2023-09-12T07:56:20;99849.72;;;29.00
24740;BMP280;45234;48.148;17.128;2023-09-12T07:58:48;99857.81;;;28.91
24740;BMP280;45234;48.148;17.128;2023-09-12T08:01:16;99851.63;;;28.79
24740;BMP280;45234;48.148;17.128;2023-09-12T08:03:43;99848.59;;;28.68
24740;BMP280;45234;48.148;17.128;2023-09-12T08:06:11;99846.78;;;28.60
24740;BMP280;45234;48.148;17.128;2023-09-12T08:08:38;99849.91;;;28.83
24740;BMP280;45234;48.148;17.128;2023-09-12T08:11:05;99850.13;;;29.23
24740;BMP280;45234;48.148;17.128;2023-09-12T08:13:32;99854.00;;;29.58
24740;BMP280;45234;48.148;17.128;2023-09-12T08:15:58;99850.66;;;29.85
24740;BMP280;45234;48.148;17.128;2023-09-12T08:18:30;99857.56;;;29.86
24740;BMP280;45234;48.148;17.128;2023-09-12T08:20:58;99851.88;;;29.64
24740;BMP280;45234;48.148;17.128;2023-09-12T08:23:25;99859.28;;;29.34
24740;BMP280;45234;48.148;17.128;2023-09-12T08:25:52;99855.13;;;29.24
24740;BMP280;45234;48.148;17.128;2023-09-12T08:28:19;99852.38;;;29.33
24740;BMP280;45234;48.148;17.128;2023-09-12T08:30:46;99857.44;;;29.46
24740;BMP280;45234;48.148;17.128;2023-09-12T08:33:13;99852.88;;;29.59
24740;BMP280;45234;48.148;17.128;2023-09-12T08:35:42;99856.00;;;29.73
24740;BMP280;45234;48.148;17.128;2023-09-12T08:38:10;99853.56;;;29.92
24740;BMP280;45234;48.148;17.128;2023-09-12T08:40:37;99860.94;;;29.83
24740;BMP280;45234;48.148;17.128;2023-09-12T08:43:04;99860.47;;;29.93
24740;BMP280;45234;48.148;17.128;2023-09-12T08:45:31;99859.25;;;30.03
24740;BMP280;45234;48.148;17.128;2023-09-12T08:48:02;99862.03;;;29.94
24740;BMP280;45234;48.148;17.128;2023-09-12T08:50:30;99855.69;;;30.11
24740;BMP280;45234;48.148;17.128;2023-09-12T08:53:01;99857.97;;;30.37
24740;BMP280;45234;48.148;17.128;2023-09-12T08:55:34;99850.63;;;30.34
24740;BMP280;45234;48.148;17.128;2023-09-12T08:58:05;99845.31;;;29.85
24740;BMP280;45234;48.148;17.128;2023-09-12T09:00:34;99847.31;;;29.64
24740;BMP280;45234;48.148;17.128;2023-09-12T09:03:03;99847.56;;;29.83
24740;BMP280;45234;48.148;17.128;2023-09-12T09:05:31;99847.88;;;29.94
24740;BMP280;45234;48.148;17.128;2023-09-12T09:07:59;99848.22;;;29.92
24740;BMP280;45234;48.148;17.128;2023-09-12T09:10:27;99846.22;;;30.02
24740;BMP280;45234;48.148;17.128;2023-09-12T09:13:04;99845.31;;;30.10
24740;BMP280;45234;48.148;17.128;2023-09-12T09:15:33;99835.25;;;30.19
24740;BMP280;45234;48.148;17.128;2023-09-12T09:18:02;99834.16;;;30.20
24740;BMP280;45234;48.148;17.128;2023-09-12T09:20:34;99836.59;;;30.25
24740;BMP280;45234;48.148;17.128;2023-09-12T09:23:03;99835.50;;;30.26
24740;BMP280;45234;48.148;17.128;2023-09-12T09:25:35;99836.97;;;30.11
24740;BMP280;45234;48.148;17.128;2023-09-12T09:28:19;99834.78;;;29.89
24740;BMP280;45234;48.148;17.128;2023-09-12T09:30:48;99832.22;;;29.80
24740;BMP280;45234;48.148;17.128;2023-09-12T09:33:16;99839.75;;;29.90
24740;BMP280;45234;48.148;17.128;2023-09-12T09:35:47;99836.41;;;29.93
24740;BMP280;45234;48.148;17.128;2023-09-12T09:38:14;99825.28;;;29.79
24740;BMP280;45234;48.148;17.128;2023-09-12T09:40:44;99831.97;;;29.85
24740;BMP280;45234;48.148;17.128;2023-09-12T09:43:12;99829.59;;;29.96
24740;BMP280;45234;48.148;17.128;2023-09-12T09:45:46;99829.59;;;30.08
24740;BMP280;45234;48.148;17.128;2023-09-12T09:48:26;99820.25;;;30.02
24740;BMP280;45234;48.148;17.128;2023-09-12T09:51:02;99818.38;;;30.03
24740;BMP280;45234;48.148;17.128;2023-09-12T09:53:32;99815.81;;;29.70
24740;BMP280;45234;48.148;17.128;2023-09-12T09:56:15;99812.34;;;29.45
24740;BMP280;45234;48.148;17.128;2023-09-12T09:58:52;99821.78;;;29.30
24740;BMP280;45234;48.148;17.128;2023-09-12T10:01:26;99814.97;;;29.21
24740;BMP280;45234;48.148;17.128;2023-09-12T10:03:59;99814.19;;;29.20
24740;BMP280;45234;48.148;17.128;2023-09-12T10:06:28;99804.56;;;29.28
24740;BMP280;45234;48.148;17.128;2023-09-12T10:08:57;99802.34;;;29.42
24740;BMP280;45234;48.148;17.128;2023-09-12T10:11:28;99804.13;;;29.38
24740;BMP280;45234;48.148;17.128;2023-09-12T10:14:00;99797.22;;;29.25
24740;BMP280;45234;48.148;17.128;2023-09-12T10:16:34;99799.97;;;29.16
24740;BMP280;45234;48.148;17.128;2023-09-12T10:22:05;99790.97;;;28.88
24740;BMP280;45234;48.148;17.128;2023-09-12T10:24:34;99783.00;;;29.00
24740;BMP280;45234;48.148;17.128;2023-09-12T10:27:02;99789.91;;;29.01
24740;BMP280;45234;48.148;17.128;2023-09-12T10:29:31;99786.50;;;29.13
24740;BMP280;45234;48.148;17.128;2023-09-12T10:31:59;99791.63;;;29.18
24740;BMP280;45234;48.148;17.128;2023-09-12T10:34:27;99783.88;;;29.25
24740;BMP280;45234;48.148;17.128;2023-09-12T10:36:55;99782.53;;;29.31
24740;BMP280;45234;48.148;17.128;2023-09-12T10:39:27;99783.41;;;29.35
24740;BMP280;45234;48.148;17.128;2023-09-12T10:41:54;99779.06;;;29.30
24740;BMP280;45234;48.148;17.128;2023-09-12T10:44:22;99778.63;;;29.28
24740;BMP280;45234;48.148;17.128;2023-09-12T10:46:50;99778.97;;;29.27
24740;BMP280;45234;48.148;17.128;2023-09-12T10:49:18;99776.28;;;29.27
24740;BMP280;45234;48.148;17.128;2023-09-12T10:51:47;99771.16;;;29.22
24740;BMP280;45234;48.148;17.128;2023-09-12T10:54:16;99772.16;;;29.17
24740;BMP280;45234;48.148;17.128;2023-09-12T10:57:10;99766.56;;;28.98
24740;BMP280;45234;48.148;17.128;2023-09-12T11:02:35;99770.72;;;29.08
24740;BMP280;45234;48.148;17.128;2023-09-12T11:05:07;99769.13;;;29.07
24740;BMP280;45234;48.148;17.128;2023-09-12T11:08:00;99770.72;;;29.08
24740;BMP280;45234;48.148;17.128;2023-09-12T11:10:29;99767.38;;;29.11
24740;BMP280;45234;48.148;17.128;2023-09-12T11:12:58;99765.81;;;29.10
24740;BMP280;45234;48.148;17.128;2023-09-12T11:15:27;99763.81;;;29.07
24740;BMP280;45234;48.148;17.128;2023-09-12T11:18:07;99764.88;;;28.93
24740;BMP280;45234;48.148;17.128;2023-09-12T11:21:00;99762.28;;;28.85
24740;BMP280;45234;48.148;17.128;2023-09-12T11:23:30;99768.22;;;29.02
24740;BMP280;45234;48.148;17.128;2023-09-12T11:26:08;99763.06;;;28.85
24740;BMP280;45234;48.148;17.128;2023-09-12T11:28:39;99757.50;;;28.90
24740;BMP280;45234;48.148;17.128;2023-09-12T11:31:06;99752.41;;;28.85
24740;BMP280;45234;48.148;17.128;2023-09-12T11:33:34;99752.47;;;28.77
24740;BMP280;45234;48.148;17.128;2023-09-12T11:36:02;99745.00;;;28.70
24740;BMP280;45234;48.148;17.128;2023-09-12T11:38:31;99744.69;;;28.72
24740;BMP280;45234;48.148;17.128;2023-09-12T11:40:59;99744.69;;;28.72
24740;BMP280;45234;48.148;17.128;2023-09-12T11:43:29;99745.47;;;28.72
24740;BMP280;45234;48.148;17.128;2023-09-12T11:45:57;99744.09;;;28.66
24740;BMP280;45234;48.148;17.128;2023-09-12T11:48:25;99754.72;;;28.75
24740;BMP280;45234;48.148;17.128;2023-09-12T11:50:56;99745.03;;;28.82
24740;BMP280;45234;48.148;17.128;2023-09-12T11:53:26;99750.19;;;28.99
24740;BMP280;45234;48.148;17.128;2023-09-12T11:55:58;99745.69;;;29.24
24740;BMP280;45234;48.148;17.128;2023-09-12T11:58:27;99741.81;;;29.34
24740;BMP280;45234;48.148;17.128;2023-09-12T12:00:56;99745.59;;;29.33
24740;BMP280;45234;48.148;17.128;2023-09-12T12:03:25;99736.34;;;29.30
24740;BMP280;45234;48.148;17.128;2023-09-12T12:05:54;99741.81;;;29.22
24740;BMP280;45234;48.148;17.128;2023-09-12T12:08:22;99736.69;;;29.17
24740;BMP280;45234;48.148;17.128;2023-09-12T12:10:53;99738.00;;;29.11
24740;BMP280;45234;48.148;17.128;2023-09-12T12:13:22;99734.22;;;29.12
24740;BMP280;45234;48.148;17.128;2023-09-12T12:15:53;99732.47;;;29.16
24740;BMP280;45234;48.148;17.128;2023-09-12T12:18:21;99734.47;;;29.19
24740;BMP280;45234;48.148;17.128;2023-09-12T12:20:48;99743.13;;;29.16
24740;BMP280;45234;48.148;17.128;2023-09-12T12:23:15;99737.03;;;29.15
24740;BMP280;45234;48.148;17.128;2023-09-12T12:25:42;99733.56;;;29.15
24740;BMP280;45234;48.148;17.128;2023-09-12T12:28:09;99722.88;;;29.15
24740;BMP280;45234;48.148;17.128;2023-09-12T12:30:36;99731.34;;;29.17
24740;BMP280;45234;48.148;17.128;2023-09-12T12:33:10;99723.88;;;29.10
24740;BMP280;45234;48.148;17.128;2023-09-12T12:36:05;99720.00;;;29.08
24740;BMP280;45234;48.148;17.128;2023-09-12T12:38:37;99715.09;;;29.10
24740;BMP280;45234;48.148;17.128;2023-09-12T12:41:15;99716.78;;;29.14
24740;BMP280;45234;48.148;17.128;2023-09-12T12:43:43;99719.91;;;29.16
24740;BMP280;45234;48.148;17.128;2023-09-12T12:46:11;99720.44;;;29.10
24740;BMP280;45234;48.148;17.128;2023-09-12T12:48:43;99709.75;;;29.10
24740;BMP280;45234;48.148;17.128;2023-09-12T12:51:17;99715.09;;;29.10
24740;BMP280;45234;48.148;17.128;2023-09-12T12:53:47;99709.53;;;29.15
24740;BMP280;45234;48.148;17.128;2023-09-12T12:56:26;99717.66;;;29.18
24740;BMP280;45234;48.148;17.128;2023-09-12T12:58:58;99708.63;;;29.23
24740;BMP280;45234;48.148;17.128;2023-09-12T13:01:29;99702.66;;;29.26
24740;BMP280;45234;48.148;17.128;2023-09-12T13:03:57;99701.22;;;29.28
24740;BMP280;45234;48.148;17.128;2023-09-12T13:06:24;99698.44;;;29.37
24740;BMP280;45234;48.148;17.128;2023-09-12T13:08:52;99697.75;;;29.40
24740;BMP280;45234;48.148;17.128;2023-09-12T13:11:20;99694.63;;;29.38
24740;BMP280;45234;48.148;17.128;2023-09-12T13:13:48;99695.78;;;29.37
24740;BMP280;45234;48.148;17.128;2023-09-12T13:16:18;99699.66;;;29.39
24740;BMP280;45234;48.148;17.128;2023-09-12T13:18:45;99694.84;;;29.45
24740;BMP280;45234;48.148;17.128;2023-09-12T13:21:13;99697.97;;;29.47
24740;BMP280;45234;48.148;17.128;2023-09-12T13:23:40;99694.19;;;29.48
24740;BMP280;45234;48.148;17.128;2023-09-12T13:26:09;99693.84;;;29.50
24740;BMP280;45234;48.148;17.128;2023-09-12T13:28:37;99685.94;;;29.53
24740;BMP280;45234;48.148;17.128;2023-09-12T13:31:05;99683.69;;;29.55
24740;BMP280;45234;48.148;17.128;2023-09-12T13:33:31;99684.81;;;29.54
24740;BMP280;45234;48.148;17.128;2023-09-12T13:35:59;99678.84;;;29.57
24740;BMP280;45234;48.148;17.128;2023-09-12T13:38:26;99681.50;;;29.57
24740;BMP280;45234;48.148;17.128;2023-09-12T13:40:53;99676.16;;;29.57
24740;BMP280;45234;48.148;17.128;2023-09-12T13:43:20;99679.91;;;29.56
24740;BMP280;45234;48.148;17.128;2023-09-12T13:45:47;99678.34;;;29.55
24740;BMP280;45234;48.148;17.128;2023-09-12T13:48:16;99678.16;;;29.60
24740;BMP280;45234;48.148;17.128;2023-09-12T13:50:43;99673.25;;;29.62
24740;BMP280;45234;48.148;17.128;2023-09-12T13:53:10;99673.34;;;29.66
24740;BMP280;45234;48.148;17.128;2023-09-12T13:55:37;99671.91;;;29.68
24740;BMP280;45234;48.148;17.128;2023-09-12T13:58:25;99673.81;;;29.68
24740;BMP280;45234;48.148;17.128;2023-09-12T14:01:02;99675.38;;;29.69
24740;BMP280;45234;48.148;17.128;2023-09-12T14:03:31;99678.81;;;29.69
24740;BMP280;45234;48.148;17.128;2023-09-12T14:05:59;99665.47;;;29.69
24740;BMP280;45234;48.148;17.128;2023-09-12T14:08:27;99677.69;;;29.70
24740;BMP280;45234;48.148;17.128;2023-09-12T14:10:54;99676.22;;;29.73
24740;BMP280;45234;48.148;17.128;2023-09-12T14:13:22;99676.03;;;29.78
24740;BMP280;45234;48.148;17.128;2023-09-12T14:15:49;99674.56;;;29.80
24740;BMP280;45234;48.148;17.128;2023-09-12T14:18:18;99681.53;;;29.85